Pope A F B, North Carolina
Current Conditions -  °F | °C
As of 1:45 PM on Wednesday 26 Nov 2014 (Local Time) from KPOB Reporting Station
Overcast Overcast  
Wind Chill: 41°   Ceiling: 800
Heat Index: 46°   Visibility: 10mi
Dew Point: 45°   Wind: 10mph
Humidity: 93%   Direction: 320°NW
Pressure: 29.96"   Gusts: NA
Location:  35.1734°N, 79.0138°W
Report Text: KPOB 261845Z AUTO 32009KT 10SM BKN008 BKN013 OVC020 08/07 A2996 RMK AO2 RAE1839DZB1839E1845 CIG 008V010
Loading
Personal Weather Stations






























Interactive Weather Map New forecast layout! Learn more

10-Day Weather Forecast

Advertisements
Track Severe Weather on mobile